Bookmark and Share
Track history (hours):
 

Wilson Mersin

Last reported at 2014-Apr-16 04:33 UTC. Time now 2014-Apr-16 05:15 UTC.
Position N 52°24' E 004°52'.

Length 107 m; draft 7 m.

Type: Cargo ship. MMSI: 210072000.

NotesDate/timePositionNaut miles runAvg speedWind from/ knotsBaromVisibWave heightAir tempDewpointWater temp
2014-Apr-16 04:33N 52°24' E 004°52'0 0.0
2014-Apr-16 03:33N 52°24' E 004°52'0 0.0
2014-Apr-16 02:33N 52°24' E 004°52'0 0.0
2014-Apr-16 01:33N 52°24' E 004°52'0 0.0
2014-Apr-16 00:33N 52°24' E 004°52'0 0.0
2014-Apr-15 23:33N 52°24' E 004°52'0 0.0
2014-Apr-15 22:33N 52°24' E 004°52'0 0.0
2014-Apr-15 21:33N 52°24' E 004°52'0 0.0
2014-Apr-15 20:33N 52°24' E 004°52'0 0.0
2014-Apr-15 19:33N 52°24' E 004°52'1 0.7
2014-Apr-15 18:34N 52°25' E 004°51'8 8.4
2014-Apr-15 17:33N 52°28' E 004°38'3 3.1
2014-Apr-15 16:33N 52°28' E 004°33'8 7.6
2014-Apr-15 15:33N 52°28' E 004°21'8 8.0
2014-Apr-15 14:33N 52°30' E 004°08'9 4.7
2014-Apr-15 12:34N 52°39' E 004°01'22411.8
2014-Apr-14 17:30N 56°21' E 004°52'2311.6
2014-Apr-14 15:30N 56°44' E 004°49'  
2014-Apr-11 15:24N 67°30' E 014°21'1010.5
2014-Apr-11 14:28N 67°33' E 014°46'11 9.5
2014-Apr-11 13:18N 67°32' E 015°15'7 0.6
2014-Apr-11 01:33N 67°35' E 014°57'1212.3
2014-Apr-11 00:33N 67°30' E 014°28'82 9.0
2014-Apr-10 15:23N 66°35' E 011°52'6 5.5
2014-Apr-10 14:22N 66°34' E 011°38'4 1.5
2014-Apr-10 11:33N 66°36' E 011°47'1312.9
2014-Apr-10 10:31N 66°23' E 011°53'1313.1
2014-Apr-10 09:33N 66°16' E 012°20'8 0.2
2014-Apr-08 06:32N 66°14' E 012°39'1110.0
2014-Apr-08 05:27N 66°17' E 012°13'1111.0
2014-Apr-08 04:25N 66°24' E 011°50'1211.6
2014-Apr-08 03:24N 66°36' E 011°45'  

Dump ship's entire track history

sailing weather and tide predictions

Wilson Mersin — P3PA6 — position and weather